sensor_id;sensor_type;location;lat;lon;timestamp;temperature;humidity
57719;DHT22;43561;50.090;18.522;2022-07-22T00:04:17;22.70;74.70
57719;DHT22;43561;50.090;18.522;2022-07-22T00:14:19;22.50;77.50
57719;DHT22;43561;50.090;18.522;2022-07-22T00:24:22;22.50;79.80
57719;DHT22;43561;50.090;18.522;2022-07-22T00:34:25;22.30;81.50
57719;DHT22;43561;50.090;18.522;2022-07-22T00:44:27;22.30;82.10
57719;DHT22;43561;50.090;18.522;2022-07-22T00:54:37;22.20;83.90
57719;DHT22;43561;50.090;18.522;2022-07-22T01:04:40;22.10;85.30
57719;DHT22;43561;50.090;18.522;2022-07-22T01:14:42;21.90;86.40
57719;DHT22;43561;50.090;18.522;2022-07-22T01:24:44;21.90;87.70
57719;DHT22;43561;50.090;18.522;2022-07-22T01:34:46;21.80;87.80
57719;DHT22;43561;50.090;18.522;2022-07-22T01:44:48;21.70;88.60
57719;DHT22;43561;50.090;18.522;2022-07-22T01:54:50;21.50;90.20
57719;DHT22;43561;50.090;18.522;2022-07-22T02:04:53;21.30;91.00
57719;DHT22;43561;50.090;18.522;2022-07-22T02:14:55;21.30;91.90
57719;DHT22;43561;50.090;18.522;2022-07-22T02:24:59;21.30;92.20
57719;DHT22;43561;50.090;18.522;2022-07-22T02:35:01;21.20;92.90
57719;DHT22;43561;50.090;18.522;2022-07-22T02:45:03;21.10;93.30
57719;DHT22;43561;50.090;18.522;2022-07-22T02:55:06;21.10;93.80
57719;DHT22;43561;50.090;18.522;2022-07-22T03:05:09;21.00;94.30
57719;DHT22;43561;50.090;18.522;2022-07-22T03:15:17;21.10;94.30
57719;DHT22;43561;50.090;18.522;2022-07-22T03:25:20;21.20;94.20
57719;DHT22;43561;50.090;18.522;2022-07-22T03:35:22;21.30;93.80
57719;DHT22;43561;50.090;18.522;2022-07-22T03:45:24;21.50;93.00
57719;DHT22;43561;50.090;18.522;2022-07-22T03:55:27;21.80;92.10
57719;DHT22;43561;50.090;18.522;2022-07-22T04:05:31;21.90;90.90
57719;DHT22;43561;50.090;18.522;2022-07-22T04:15:33;22.30;89.90
57719;DHT22;43561;50.090;18.522;2022-07-22T04:25:35;22.20;90.00
57719;DHT22;43561;50.090;18.522;2022-07-22T04:35:38;22.30;90.20
57719;DHT22;43561;50.090;18.522;2022-07-22T04:45:48;23.40;87.40
57719;DHT22;43561;50.090;18.522;2022-07-22T04:55:51;24.00;84.40
57719;DHT22;43561;50.090;18.522;2022-07-22T05:05:53;24.40;81.50
57719;DHT22;43561;50.090;18.522;2022-07-22T05:16:05;23.80;82.00
57719;DHT22;43561;50.090;18.522;2022-07-22T05:26:09;23.70;80.80
57719;DHT22;43561;50.090;18.522;2022-07-22T05:36:11;23.50;81.90
57719;DHT22;43561;50.090;18.522;2022-07-22T05:46:19;23.70;82.10
57719;DHT22;43561;50.090;18.522;2022-07-22T05:56:21;23.50;82.40
57719;DHT22;43561;50.090;18.522;2022-07-22T06:06:24;23.20;84.40
57719;DHT22;43561;50.090;18.522;2022-07-22T06:16:26;23.30;84.90
57719;DHT22;43561;50.090;18.522;2022-07-22T06:26:32;23.60;84.10
57719;DHT22;43561;50.090;18.522;2022-07-22T06:36:36;24.50;83.70
57719;DHT22;43561;50.090;18.522;2022-07-22T06:46:38;27.40;75.70
57719;DHT22;43561;50.090;18.522;2022-07-22T06:56:42;27.30;71.40
57719;DHT22;43561;50.090;18.522;2022-07-22T07:06:49;28.90;68.30
57719;DHT22;43561;50.090;18.522;2022-07-22T07:17:07;28.00;68.60
57719;DHT22;43561;50.090;18.522;2022-07-22T07:27:13;29.10;63.80
57719;DHT22;43561;50.090;18.522;2022-07-22T07:37:18;28.30;65.20
57719;DHT22;43561;50.090;18.522;2022-07-22T07:47:20;29.20;64.30
57719;DHT22;43561;50.090;18.522;2022-07-22T07:57:24;29.70;63.20
57719;DHT22;43561;50.090;18.522;2022-07-22T08:07:26;28.20;63.70
57719;DHT22;43561;50.090;18.522;2022-07-22T08:17:33;28.40;64.30
57719;DHT22;43561;50.090;18.522;2022-07-22T08:27:37;27.90;64.00
57719;DHT22;43561;50.090;18.522;2022-07-22T08:37:39;30.00;62.10
57719;DHT22;43561;50.090;18.522;2022-07-22T08:47:48;28.70;63.50
57719;DHT22;43561;50.090;18.522;2022-07-22T08:58:11;28.70;63.80
57719;DHT22;43561;50.090;18.522;2022-07-22T09:08:13;30.90;60.80
57719;DHT22;43561;50.090;18.522;2022-07-22T09:29:28;30.30;61.80
57719;DHT22;43561;50.090;18.522;2022-07-22T09:39:50;30.90;59.60
57719;DHT22;43561;50.090;18.522;2022-07-22T09:49:54;30.60;60.10
57719;DHT22;43561;50.090;18.522;2022-07-22T10:00:19;30.90;59.20
57719;DHT22;43561;50.090;18.522;2022-07-22T10:10:33;30.20;60.20
57719;DHT22;43561;50.090;18.522;2022-07-22T10:20:36;32.00;58.30
57719;DHT22;43561;50.090;18.522;2022-07-22T10:30:38;31.20;58.30
57719;DHT22;43561;50.090;18.522;2022-07-22T10:40:50;31.60;57.90
57719;DHT22;43561;50.090;18.522;2022-07-22T10:51:04;30.00;58.00
57719;DHT22;43561;50.090;18.522;2022-07-22T11:01:09;31.10;56.90
57719;DHT22;43561;50.090;18.522;2022-07-22T11:11:11;32.00;56.50
57719;DHT22;43561;50.090;18.522;2022-07-22T11:21:16;31.10;56.30
57719;DHT22;43561;50.090;18.522;2022-07-22T11:31:18;32.10;55.80
57719;DHT22;43561;50.090;18.522;2022-07-22T11:41:20;31.90;56.50
57719;DHT22;43561;50.090;18.522;2022-07-22T11:51:28;32.00;55.80
57719;DHT22;43561;50.090;18.522;2022-07-22T12:01:35;31.70;56.70
57719;DHT22;43561;50.090;18.522;2022-07-22T12:11:41;31.50;57.10
57719;DHT22;43561;50.090;18.522;2022-07-22T12:42:18;31.10;55.40
57719;DHT22;43561;50.090;18.522;2022-07-22T12:52:20;30.90;55.90
57719;DHT22;43561;50.090;18.522;2022-07-22T13:02:23;30.90;55.70
57719;DHT22;43561;50.090;18.522;2022-07-22T13:12:26;31.40;55.40
57719;DHT22;43561;50.090;18.522;2022-07-22T13:22:29;30.70;55.60
57719;DHT22;43561;50.090;18.522;2022-07-22T13:32:31;30.90;55.60
57719;DHT22;43561;50.090;18.522;2022-07-22T13:42:49;30.50;55.90
57719;DHT22;43561;50.090;18.522;2022-07-22T13:52:51;30.90;55.50
57719;DHT22;43561;50.090;18.522;2022-07-22T14:02:53;30.90;55.80
57719;DHT22;43561;50.090;18.522;2022-07-22T14:12:56;30.50;55.70
57719;DHT22;43561;50.090;18.522;2022-07-22T14:22:58;31.20;55.10
57719;DHT22;43561;50.090;18.522;2022-07-22T14:33:00;30.50;55.70
57719;DHT22;43561;50.090;18.522;2022-07-22T14:43:02;30.60;55.50
57719;DHT22;43561;50.090;18.522;2022-07-22T14:53:24;31.40;56.10
57719;DHT22;43561;50.090;18.522;2022-07-22T15:03:26;30.80;55.40
57719;DHT22;43561;50.090;18.522;2022-07-22T15:13:28;30.80;55.60
57719;DHT22;43561;50.090;18.522;2022-07-22T15:23:31;30.70;55.30
57719;DHT22;43561;50.090;18.522;2022-07-22T15:33:34;30.60;55.70
57719;DHT22;43561;50.090;18.522;2022-07-22T15:43:40;30.20;55.70
57719;DHT22;43561;50.090;18.522;2022-07-22T15:53:42;30.60;55.40
57719;DHT22;43561;50.090;18.522;2022-07-22T16:03:44;30.60;54.30
57719;DHT22;43561;50.090;18.522;2022-07-22T16:13:46;30.40;54.90
57719;DHT22;43561;50.090;18.522;2022-07-22T16:23:48;30.40;54.30
57719;DHT22;43561;50.090;18.522;2022-07-22T16:33:51;30.50;54.40
57719;DHT22;43561;50.090;18.522;2022-07-22T16:43:53;30.40;53.50
57719;DHT22;43561;50.090;18.522;2022-07-22T16:53:56;30.50;54.60
57719;DHT22;43561;50.090;18.522;2022-07-22T17:03:59;30.50;54.10
57719;DHT22;43561;50.090;18.522;2022-07-22T17:14:01;30.20;53.50
57719;DHT22;43561;50.090;18.522;2022-07-22T17:24:03;30.20;52.90
57719;DHT22;43561;50.090;18.522;2022-07-22T17:34:05;30.00;52.90
57719;DHT22;43561;50.090;18.522;2022-07-22T17:44:07;29.90;53.50
57719;DHT22;43561;50.090;18.522;2022-07-22T17:54:09;29.70;53.80
57719;DHT22;43561;50.090;18.522;2022-07-22T18:04:11;29.40;54.10
57719;DHT22;43561;50.090;18.522;2022-07-22T18:14:13;29.10;55.50
57719;DHT22;43561;50.090;18.522;2022-07-22T18:24:15;28.90;56.20
57719;DHT22;43561;50.090;18.522;2022-07-22T18:34:17;28.70;56.60
57719;DHT22;43561;50.090;18.522;2022-07-22T18:44:19;28.40;57.00
57719;DHT22;43561;50.090;18.522;2022-07-22T18:54:21;28.00;57.70
57719;DHT22;43561;50.090;18.522;2022-07-22T19:04:23;27.90;57.90
57719;DHT22;43561;50.090;18.522;2022-07-22T19:14:25;27.50;59.20
57719;DHT22;43561;50.090;18.522;2022-07-22T19:24:27;27.10;61.80
57719;DHT22;43561;50.090;18.522;2022-07-22T19:34:29;26.70;63.90
57719;DHT22;43561;50.090;18.522;2022-07-22T19:44:31;26.20;64.50
57719;DHT22;43561;50.090;18.522;2022-07-22T19:54:33;26.10;62.90
57719;DHT22;43561;50.090;18.522;2022-07-22T20:04:35;25.70;64.90
57719;DHT22;43561;50.090;18.522;2022-07-22T20:14:39;25.60;66.40
57719;DHT22;43561;50.090;18.522;2022-07-22T20:24:41;25.00;67.90
57719;DHT22;43561;50.090;18.522;2022-07-22T20:34:43;24.50;73.90
57719;DHT22;43561;50.090;18.522;2022-07-22T20:44:45;24.20;75.10
57719;DHT22;43561;50.090;18.522;2022-07-22T20:54:48;24.00;75.70
57719;DHT22;43561;50.090;18.522;2022-07-22T21:04:50;23.70;78.80
57719;DHT22;43561;50.090;18.522;2022-07-22T21:14:52;23.60;79.50
57719;DHT22;43561;50.090;18.522;2022-07-22T21:24:58;23.60;80.50
57719;DHT22;43561;50.090;18.522;2022-07-22T21:35:00;23.20;83.80
57719;DHT22;43561;50.090;18.522;2022-07-22T21:45:02;23.00;84.50
57719;DHT22;43561;50.090;18.522;2022-07-22T21:55:04;22.80;87.60
57719;DHT22;43561;50.090;18.522;2022-07-22T22:05:07;22.50;89.50
57719;DHT22;43561;50.090;18.522;2022-07-22T22:15:09;22.30;92.70
57719;DHT22;43561;50.090;18.522;2022-07-22T22:25:11;21.90;94.20
57719;DHT22;43561;50.090;18.522;2022-07-22T22:35:13;21.60;96.70
57719;DHT22;43561;50.090;18.522;2022-07-22T22:45:15;21.60;97.80
57719;DHT22;43561;50.090;18.522;2022-07-22T22:55:17;21.50;98.20
57719;DHT22;43561;50.090;18.522;2022-07-22T23:05:19;21.20;99.40
57719;DHT22;43561;50.090;18.522;2022-07-22T23:15:21;20.80;99.90
57719;DHT22;43561;50.090;18.522;2022-07-22T23:25:24;20.70;99.90
57719;DHT22;43561;50.090;18.522;2022-07-22T23:35:46;20.60;99.90
57719;DHT22;43561;50.090;18.522;2022-07-22T23:45:48;20.40;99.90
57719;DHT22;43561;50.090;18.522;2022-07-22T23:55:50;20.10;99.90
